Marchen Maersk — OUIY2 — position and weather

sailwx.info

Track history (hours):
 
Tides and Currents Weather Stations Pressure Air Temp Water Temp Dewpoint Dewpoint Depression Visibility Wind Speed Wind Dir Waves Ship Positions

Marchen Maersk

Last reported at 2018-Mar-25 12:37 UTC. Time now 2018-Apr-27 08:40 UTC.
Position N 38°30' E 121°09'.
Warning: this ship's position is 32 days out of date.

Length 367 m; draft 8.7 m.

Type: Ship (hazmat cat A). MMSI: 220594000.

Date/timePositionNaut miles runAvg speedWind from/ knotsBaromVisibWave heightAir tempDewpointWater temp
2018-Mar-25 12:37N 38°30' E 121°09'14 7.3
2018-Mar-25 10:40N 38°24' E 121°26'1 7.0
2018-Mar-25 10:30N 38°23' E 121°27'4 7.1
2018-Mar-25 09:58N 38°21' E 121°31'8 6.8
2018-Mar-25 08:51N 38°17' E 121°39'3 7.4
2018-Mar-25 08:30N 38°16' E 121°42'4 7.2
2018-Mar-25 07:58N 38°14' E 121°46'3 7.2
2018-Mar-25 07:30N 38°13' E 121°50'37 8.9
2018-Mar-25 03:18N 37°53' E 122°30'412.1
2018-Mar-25 02:58N 37°51' E 122°35'712.6
2018-Mar-25 02:25N 37°48' E 122°42'512.8
2018-Mar-25 02:00N 37°45' E 122°48'39513.0
2018-Mar-23 19:39N 31°11' E 123°20'  
2018-Mar-16 15:48N 41°20' E 140°15'3 9.9
2018-Mar-16 15:28N 41°22' E 140°19'511.2
2018-Mar-16 15:00N 41°25' E 140°25'510.9
2018-Mar-16 14:30N 41°28' E 140°31'510.6
2018-Mar-16 14:01N 41°30' E 140°37'611.3
2018-Mar-16 13:31N 41°32' E 140°44'510.8
2018-Mar-16 13:01N 41°35' E 140°50'510.4
2018-Mar-16 12:30N 41°36' E 140°57'611.1
2018-Mar-16 12:00N 41°37' E 141°04'712.8
2018-Mar-16 11:29N 41°37' E 141°13'613.0
2018-Mar-16 11:00N 41°37' E 141°22'611.3
2018-Mar-16 10:30N 41°37' E 141°29'711.5
2018-Mar-16 09:55N 41°36' E 141°38'  
Track history (hours):
 
Tides and Currents Weather Stations Pressure Air Temp Water Temp Dewpoint Dewpoint Depression Visibility Wind Speed Wind Dir Waves Ship Positions

Marchen Maersk

Last reported at 2018-Mar-25 12:37 UTC. Time now 2018-Apr-27 08:40 UTC.
Position N 38°30' E 121°09'.
Warning: this ship's position is 32 days out of date.

Length 367 m; draft 8.7 m.

Type: Ship (hazmat cat A). MMSI: 220594000.

Date/timePositionNaut miles runAvg speedWind from/ knotsBaromVisibWave heightAir tempDewpointWater temp
2018-Mar-25 12:37N 38°30' E 121°09'14 7.3
2018-Mar-25 10:40N 38°24' E 121°26'1 7.0
2018-Mar-25 10:30N 38°23' E 121°27'4 7.1
2018-Mar-25 09:58N 38°21' E 121°31'8 6.8
2018-Mar-25 08:51N 38°17' E 121°39'3 7.4
2018-Mar-25 08:30N 38°16' E 121°42'4 7.2
2018-Mar-25 07:58N 38°14' E 121°46'3 7.2
2018-Mar-25 07:30N 38°13' E 121°50'37 8.9
2018-Mar-25 03:18N 37°53' E 122°30'412.1
2018-Mar-25 02:58N 37°51' E 122°35'712.6
2018-Mar-25 02:25N 37°48' E 122°42'512.8
2018-Mar-25 02:00N 37°45' E 122°48'39513.0
2018-Mar-23 19:39N 31°11' E 123°20'  
2018-Mar-16 15:48N 41°20' E 140°15'3 9.9
2018-Mar-16 15:28N 41°22' E 140°19'511.2
2018-Mar-16 15:00N 41°25' E 140°25'510.9
2018-Mar-16 14:30N 41°28' E 140°31'510.6
2018-Mar-16 14:01N 41°30' E 140°37'611.3
2018-Mar-16 13:31N 41°32' E 140°44'510.8
2018-Mar-16 13:01N 41°35' E 140°50'510.4
2018-Mar-16 12:30N 41°36' E 140°57'611.1
2018-Mar-16 12:00N 41°37' E 141°04'712.8
2018-Mar-16 11:29N 41°37' E 141°13'613.0
2018-Mar-16 11:00N 41°37' E 141°22'611.3
2018-Mar-16 10:30N 41°37' E 141°29'711.5
2018-Mar-16 09:55N 41°36' E 141°38'  

Dump ship's entire track history